Time;durP1;ratioP1;P1;durP2;ratioP2;P2;SDS_P1;SDS_P2;PMS_P1;PMS_P2;Temp;Humidity;BMP_temperature;BMP_pressure;BME280_temperature;BME280_humidity;BME280_pressure;Samples;Min_cycle;Max_cycle;Signal;HPM_P1;HPM_P2
2022/09/17 00:01:23;;;;;;;5.30;1.30;;;14.20;73.00;;;;;;5017576;28;21357;-72
2022/09/17 00:03:54;;;;;;;9.00;1.60;;;14.20;73.00;;;;;;5005582;28;20484;-73
2022/09/17 00:06:25;;;;;;;4.07;1.50;;;14.20;73.00;;;;;;5002033;28;21034;-72
2022/09/17 00:08:54;;;;;;;4.30;1.70;;;14.20;73.00;;;;;;4998258;28;20515;-71
2022/09/17 00:11:25;;;;;;;6.13;1.93;;;14.20;73.00;;;;;;4998938;28;20493;-72
2022/09/17 00:13:54;;;;;;;4.87;1.77;;;14.20;73.00;;;;;;4992771;28;20488;-71
2022/09/17 00:16:26;;;;;;;6.10;1.67;;;14.20;73.00;;;;;;5012034;28;20842;-73
2022/09/17 00:18:54;;;;;;;4.87;1.50;;;14.10;73.00;;;;;;4994664;28;20463;-72
2022/09/17 00:21:24;;;;;;;5.53;1.60;;;14.10;73.10;;;;;;5001181;28;20455;-73
2022/09/17 00:23:56;;;;;;;6.87;1.90;;;14.10;73.10;;;;;;5005303;28;20516;-72
2022/09/17 00:26:24;;;;;;;6.87;1.60;;;14.10;73.10;;;;;;4994034;28;21118;-73
2022/09/17 00:28:54;;;;;;;4.43;1.40;;;14.10;73.10;;;;;;5003314;28;20468;-72
2022/09/17 00:31:22;;;;;;;6.80;1.60;;;14.10;73.10;;;;;;5003922;28;20517;-72
2022/09/17 00:33:51;;;;;;;6.63;1.53;;;14.10;73.10;;;;;;5000317;28;21297;-72
2022/09/17 00:36:20;;;;;;;4.60;1.50;;;14.10;73.00;;;;;;5010955;28;20516;-72
2022/09/17 00:38:50;;;;;;;7.90;1.73;;;14.10;73.00;;;;;;4997698;28;20477;-72
2022/09/17 00:41:19;;;;;;;8.17;1.30;;;14.10;73.00;;;;;;4997670;28;20499;-72
2022/09/17 00:43:49;;;;;;;5.60;1.30;;;14.10;73.00;;;;;;5007120;28;20571;-72
2022/09/17 00:46:37;;;;;;;4.20;1.30;;;14.10;73.10;;;;;;5006123;28;20457;-73
2022/09/17 00:49:10;;;;;;;6.00;1.40;;;14.10;73.00;;;;;;5004683;28;20524;-72
2022/09/17 00:51:44;;;;;;;5.90;1.80;;;14.10;73.00;;;;;;5001842;28;20456;-72
2022/09/17 00:54:13;;;;;;;7.53;1.80;;;14.00;73.00;;;;;;5006186;28;20524;-72
2022/09/17 00:56:42;;;;;;;8.90;1.80;;;14.00;73.00;;;;;;5001169;28;20454;-72
2022/09/17 00:59:11;;;;;;;7.50;1.80;;;14.00;73.10;;;;;;4998918;28;21397;-72
2022/09/17 01:01:39;;;;;;;5.47;1.43;;;14.00;73.10;;;;;;5004596;28;20468;-73
2022/09/17 01:04:07;;;;;;;5.40;2.40;;;14.00;73.10;;;;;;5000495;28;20497;-73
2022/09/17 01:06:41;;;;;;;8.57;1.50;;;14.00;73.10;;;;;;5004171;28;20473;-73
2022/09/17 01:09:25;;;;;;;6.43;1.40;;;14.00;73.10;;;;;;5002998;28;20558;-73
2022/09/17 01:12:25;;;;;;;6.47;2.37;;;14.00;73.10;;;;;;5014530;28;20916;-73
2022/09/17 01:15:06;;;;;;;5.73;1.77;;;14.00;73.10;;;;;;5004976;28;20500;-73
2022/09/17 01:17:40;;;;;;;6.60;1.73;;;14.00;73.10;;;;;;4999865;28;20485;-73
2022/09/17 01:20:40;;;;;;;9.50;2.17;;;13.90;73.10;;;;;;5002020;28;20502;-73
2022/09/17 01:23:35;;;;;;;7.33;1.90;;;13.90;73.10;;;;;;5001342;28;20476;-74
2022/09/17 01:26:25;;;;;;;9.83;2.40;;;13.90;73.10;;;;;;5005244;28;20503;-73
2022/09/17 01:28:59;;;;;;;6.50;1.60;;;13.90;73.10;;;;;;5022211;28;20472;-72
2022/09/17 01:31:36;;;;;;;5.00;1.53;;;13.80;73.10;;;;;;5002058;28;20531;-73
2022/09/17 01:34:13;;;;;;;6.37;1.87;;;13.80;73.10;;;;;;5003466;28;20478;-73
2022/09/17 01:36:58;;;;;;;5.50;1.50;;;13.80;73.10;;;;;;5003702;28;20916;-73
2022/09/17 01:39:35;;;;;;;7.07;1.67;;;13.80;73.20;;;;;;5002811;28;20449;-73
2022/09/17 01:42:14;;;;;;;6.90;1.70;;;13.80;73.10;;;;;;5014459;28;20498;-73
2022/09/17 01:44:50;;;;;;;8.50;1.70;;;13.80;73.10;;;;;;5011625;28;20468;-73
2022/09/17 01:47:23;;;;;;;10.63;1.63;;;13.70;73.20;;;;;;5001691;28;20457;-73
2022/09/17 01:49:55;;;;;;;6.70;1.40;;;13.70;73.30;;;;;;5001352;28;20444;-72
2022/09/17 01:52:25;;;;;;;11.50;1.73;;;13.70;73.30;;;;;;4996235;28;20485;-73
2022/09/17 01:54:58;;;;;;;6.50;1.40;;;13.70;73.30;;;;;;5015567;28;21213;-73
2022/09/17 01:57:29;;;;;;;7.47;1.90;;;13.70;73.30;;;;;;5013705;28;20457;-73
2022/09/17 02:00:01;;;;;;;7.57;1.60;;;13.70;73.40;;;;;;4996649;28;20468;-73
2022/09/17 02:02:43;;;;;;;5.97;1.40;;;13.70;73.30;;;;;;4997902;28;20482;-73
2022/09/17 02:05:16;;;;;;;5.60;1.70;;;13.70;73.40;;;;;;5011732;28;20645;-73
2022/09/17 02:07:48;;;;;;;7.00;1.87;;;13.70;73.30;;;;;;5004248;28;21042;-73
2022/09/17 02:10:19;;;;;;;6.27;1.80;;;13.70;73.40;;;;;;5002984;28;20487;-72
2022/09/17 02:12:55;;;;;;;5.30;1.87;;;13.70;73.50;;;;;;5006347;28;20637;-73
2022/09/17 02:15:27;;;;;;;11.70;2.00;;;13.70;73.50;;;;;;5000541;28;20571;-72
2022/09/17 02:18:03;;;;;;;5.70;1.77;;;13.70;73.50;;;;;;4999086;28;20454;-72
2022/09/17 02:20:39;;;;;;;6.93;1.37;;;13.70;73.50;;;;;;5004772;28;20460;-73
2022/09/17 02:23:13;;;;;;;5.20;1.30;;;13.80;73.50;;;;;;5003833;28;20472;-72
2022/09/17 02:25:49;;;;;;;6.43;1.63;;;13.80;73.50;;;;;;4998929;28;20490;-73
2022/09/17 02:28:24;;;;;;;5.43;1.90;;;13.80;73.50;;;;;;5001433;28;20488;-73
2022/09/17 02:30:52;;;;;;;4.60;1.60;;;13.80;73.50;;;;;;5014449;28;20492;-73
2022/09/17 02:33:22;;;;;;;4.73;1.80;;;13.80;73.50;;;;;;5001633;28;20472;-73
2022/09/17 02:35:50;;;;;;;15.53;2.60;;;13.90;73.40;;;;;;5000201;28;20500;-73
2022/09/17 02:38:23;;;;;;;9.93;2.20;;;13.80;73.30;;;;;;5002800;28;20537;-73
2022/09/17 02:41:05;;;;;;;5.90;1.90;;;13.80;73.40;;;;;;5019873;28;20459;-73
2022/09/17 02:43:41;;;;;;;7.80;1.73;;;13.80;73.40;;;;;;4997990;28;20540;-73
2022/09/17 02:46:30;;;;;;;6.07;1.50;;;13.80;73.40;;;;;;5002710;28;20523;-73
2022/09/17 02:49:20;;;;;;;8.03;1.70;;;13.80;73.40;;;;;;5001594;28;20521;-73
2022/09/17 02:51:58;;;;;;;9.50;2.20;;;13.80;73.40;;;;;;4996773;28;20537;-73
2022/09/17 02:54:29;;;;;;;8.10;1.80;;;13.80;73.50;;;;;;5014273;28;20575;-72
2022/09/17 02:57:08;;;;;;;9.10;2.63;;;13.80;73.50;;;;;;5004526;28;20837;-73
2022/09/17 02:59:41;;;;;;;4.67;1.60;;;13.80;73.50;;;;;;5002990;28;20546;-73
2022/09/17 03:02:17;;;;;;;7.93;1.80;;;13.80;73.50;;;;;;4993632;28;20512;-73
2022/09/17 03:04:49;;;;;;;7.93;1.77;;;13.80;73.40;;;;;;5011391;28;20491;-73
2022/09/17 03:07:18;;;;;;;4.30;1.67;;;13.80;73.50;;;;;;4995743;28;21343;-73
2022/09/17 03:09:46;;;;;;;8.63;1.97;;;13.70;73.60;;;;;;4995612;28;20481;-73
2022/09/17 03:12:15;;;;;;;6.93;2.00;;;13.70;73.60;;;;;;4993326;28;20474;-73
2022/09/17 03:14:43;;;;;;;11.80;2.07;;;13.70;73.70;;;;;;4992691;28;20465;-73
2022/09/17 03:17:13;;;;;;;5.00;1.50;;;13.70;73.70;;;;;;4997093;28;20553;-73
2022/09/17 03:19:41;;;;;;;11.00;1.93;;;13.70;73.70;;;;;;5001691;28;20453;-73
2022/09/17 03:22:11;;;;;;;6.90;2.00;;;13.70;73.70;;;;;;5000299;28;20502;-72
2022/09/17 03:24:39;;;;;;;9.53;2.17;;;13.70;73.70;;;;;;5002077;28;20456;-72
2022/09/17 03:27:07;;;;;;;8.30;2.00;;;13.70;73.80;;;;;;5004366;28;21256;-73
2022/09/17 03:29:35;;;;;;;7.43;1.63;;;13.70;73.70;;;;;;4996775;28;20483;-72
2022/09/17 03:32:03;;;;;;;10.33;2.70;;;13.70;73.80;;;;;;4995501;28;20993;-72
2022/09/17 03:34:31;;;;;;;6.13;2.33;;;13.70;73.90;;;;;;4994526;28;20523;-72
2022/09/17 03:36:58;;;;;;;6.00;2.00;;;13.70;73.90;;;;;;5001164;28;20464;-73
2022/09/17 03:39:28;;;;;;;9.80;1.93;;;13.70;73.90;;;;;;4996957;28;20487;-71
2022/09/17 03:41:56;;;;;;;11.30;2.00;;;13.70;73.90;;;;;;4997809;28;20467;-71
2022/09/17 03:44:24;;;;;;;9.50;2.10;;;13.70;73.80;;;;;;4994631;28;20881;-71
2022/09/17 03:46:52;;;;;;;8.17;2.37;;;13.70;73.80;;;;;;4995638;28;20482;-71
2022/09/17 03:49:22;;;;;;;6.60;2.50;;;13.70;73.80;;;;;;4993262;28;20488;-72
2022/09/17 03:51:50;;;;;;;8.03;2.00;;;13.70;73.80;;;;;;5003236;28;20504;-72
2022/09/17 03:54:18;;;;;;;9.47;1.90;;;13.80;73.70;;;;;;4994883;28;20508;-72
2022/09/17 03:56:47;;;;;;;8.40;2.47;;;13.70;73.70;;;;;;5002651;28;20561;-72
2022/09/17 03:59:15;;;;;;;9.70;2.20;;;13.70;73.70;;;;;;5003378;28;20552;-73
2022/09/17 04:01:43;;;;;;;5.87;2.43;;;13.70;73.80;;;;;;5016512;28;20508;-72
2022/09/17 04:04:11;;;;;;;8.93;2.20;;;13.70;73.80;;;;;;5004326;28;20931;-72
2022/09/17 04:06:39;;;;;;;9.80;2.03;;;13.70;73.90;;;;;;5003334;28;20497;-72
2022/09/17 04:09:07;;;;;;;7.93;2.23;;;13.70;73.90;;;;;;4998426;28;20844;-73
2022/09/17 04:11:35;;;;;;;8.03;2.40;;;13.70;74.00;;;;;;5011991;28;20520;-72
2022/09/17 04:14:05;;;;;;;9.53;2.67;;;13.70;73.90;;;;;;4995725;28;20538;-72
2022/09/17 04:16:34;;;;;;;11.13;2.90;;;13.70;74.00;;;;;;5000159;28;20469;-73
2022/09/17 04:19:02;;;;;;;7.67;2.30;;;13.70;74.10;;;;;;5010579;28;20465;-73
2022/09/17 04:21:30;;;;;;;14.77;2.57;;;13.70;74.10;;;;;;5002852;28;21000;-73
2022/09/17 04:23:58;;;;;;;8.40;2.67;;;13.70;74.10;;;;;;5008788;28;21152;-73
2022/09/17 04:26:26;;;;;;;10.53;2.77;;;13.70;74.20;;;;;;5002347;28;20487;-73
2022/09/17 04:28:54;;;;;;;9.60;2.37;;;13.70;74.30;;;;;;5010111;28;20514;-72
2022/09/17 04:31:25;;;;;;;7.80;2.87;;;13.70;74.30;;;;;;5017362;28;20495;-72
2022/09/17 04:33:54;;;;;;;8.10;2.33;;;13.60;74.30;;;;;;5004993;28;20477;-72
2022/09/17 04:36:22;;;;;;;6.93;2.30;;;13.60;74.40;;;;;;4998250;28;20457;-72
2022/09/17 04:38:50;;;;;;;9.20;2.60;;;13.60;74.50;;;;;;5004186;28;20556;-72
2022/09/17 04:41:17;;;;;;;5.50;2.40;;;13.50;74.50;;;;;;5010020;28;20470;-72
2022/09/17 04:43:45;;;;;;;7.50;2.17;;;13.50;74.70;;;;;;5001927;28;20538;-72
2022/09/17 04:46:15;;;;;;;9.53;2.30;;;13.50;74.70;;;;;;5000719;28;20464;-72
2022/09/17 04:48:45;;;;;;;14.33;2.83;;;13.50;74.80;;;;;;5008415;28;20555;-72
2022/09/17 04:51:13;;;;;;;7.30;2.47;;;13.50;74.80;;;;;;5014914;28;20480;-73
2022/09/17 04:53:40;;;;;;;7.93;2.43;;;13.50;74.80;;;;;;5001569;28;20536;-72
2022/09/17 04:56:08;;;;;;;5.80;2.10;;;13.50;74.90;;;;;;5003876;28;20477;-73
2022/09/17 04:58:36;;;;;;;7.53;2.23;;;13.50;75.00;;;;;;5004309;28;20465;-73
2022/09/17 05:01:04;;;;;;;5.27;2.07;;;13.50;75.10;;;;;;5004821;28;20486;-73
2022/09/17 05:03:32;;;;;;;7.00;2.50;;;13.50;75.10;;;;;;5003097;28;20480;-73
2022/09/17 05:06:01;;;;;;;6.33;2.30;;;13.40;75.30;;;;;;5000310;28;20479;-73
2022/09/17 05:08:29;;;;;;;6.20;2.23;;;13.40;75.30;;;;;;5000837;28;20482;-73
2022/09/17 05:10:57;;;;;;;4.80;2.20;;;13.50;75.30;;;;;;5005516;28;20516;-73
2022/09/17 05:13:25;;;;;;;8.20;2.13;;;13.50;75.40;;;;;;5003544;28;20540;-73
2022/09/17 05:15:55;;;;;;;7.00;2.30;;;13.50;75.50;;;;;;5005442;28;20453;-73
2022/09/17 05:18:23;;;;;;;7.87;2.37;;;13.50;75.60;;;;;;5003479;28;20456;-72
2022/09/17 05:20:51;;;;;;;5.87;2.33;;;13.50;75.60;;;;;;5009777;28;20491;-72
2022/09/17 05:23:20;;;;;;;5.57;1.87;;;13.50;75.60;;;;;;5003075;28;20917;-72
2022/09/17 05:25:48;;;;;;;4.67;1.87;;;13.50;75.60;;;;;;5007802;28;20967;-72
2022/09/17 05:28:16;;;;;;;6.90;2.47;;;13.50;75.70;;;;;;5002816;28;20469;-73
2022/09/17 05:30:44;;;;;;;6.50;2.10;;;13.50;75.70;;;;;;4998442;28;20483;-73
2022/09/17 05:33:12;;;;;;;5.23;2.00;;;13.50;75.80;;;;;;5006392;28;20508;-72
2022/09/17 05:35:40;;;;;;;6.43;2.10;;;13.50;75.80;;;;;;5000366;28;20528;-72
2022/09/17 05:38:08;;;;;;;4.70;1.70;;;13.50;75.90;;;;;;5000802;28;20462;-72
2022/09/17 05:40:37;;;;;;;10.93;2.70;;;13.50;75.90;;;;;;5013685;28;20517;-72
2022/09/17 05:43:07;;;;;;;4.30;1.40;;;13.40;76.00;;;;;;5000416;28;20471;-71
2022/09/17 05:45:36;;;;;;;5.00;1.83;;;13.40;76.00;;;;;;5000840;28;21423;-72
2022/09/17 05:48:06;;;;;;;5.43;1.60;;;13.40;76.10;;;;;;5001874;28;21046;-72
2022/09/17 05:50:34;;;;;;;4.30;1.47;;;13.40;76.10;;;;;;5010362;28;20472;-72
2022/09/17 05:53:05;;;;;;;4.47;1.57;;;13.40;76.10;;;;;;5002029;28;20582;-72
2022/09/17 05:55:34;;;;;;;3.40;1.30;;;13.30;76.20;;;;;;5006150;28;20492;-72
2022/09/17 05:58:11;;;;;;;4.80;1.50;;;13.30;76.30;;;;;;5004180;28;20452;-73
2022/09/17 06:00:39;;;;;;;7.07;1.80;;;13.40;76.40;;;;;;5003453;28;20471;-73
2022/09/17 06:03:08;;;;;;;5.87;1.70;;;13.40;76.40;;;;;;5003486;28;20479;-73
2022/09/17 06:05:36;;;;;;;5.90;1.80;;;13.40;76.60;;;;;;5004565;28;21232;-72
2022/09/17 06:08:04;;;;;;;5.60;1.73;;;13.40;76.40;;;;;;5003024;28;20460;-73
2022/09/17 06:10:32;;;;;;;4.87;1.90;;;13.30;76.70;;;;;;5001428;28;21077;-72
2022/09/17 06:13:00;;;;;;;4.93;1.50;;;13.30;76.60;;;;;;5002773;28;21066;-72
2022/09/17 06:15:30;;;;;;;5.43;1.80;;;13.30;76.70;;;;;;5004960;28;20453;-72
2022/09/17 06:17:58;;;;;;;4.37;1.70;;;13.30;76.80;;;;;;5007558;28;21059;-70
2022/09/17 06:20:25;;;;;;;4.03;1.50;;;13.30;76.80;;;;;;5004366;28;21548;-72
2022/09/17 06:22:56;;;;;;;5.60;1.73;;;13.30;76.70;;;;;;5021802;28;20529;-72
2022/09/17 06:25:25;;;;;;;5.23;2.00;;;13.30;76.80;;;;;;5006350;28;20506;-72
2022/09/17 06:27:53;;;;;;;6.70;2.00;;;13.30;76.90;;;;;;5007585;28;20465;-72
2022/09/17 06:30:21;;;;;;;4.87;1.73;;;13.30;76.90;;;;;;5009120;28;20477;-71
2022/09/17 06:32:50;;;;;;;7.13;2.30;;;13.30;77.00;;;;;;5006864;28;20477;-72
2022/09/17 06:35:18;;;;;;;6.90;1.83;;;13.30;77.00;;;;;;5010007;28;20488;-72
2022/09/17 06:37:49;;;;;;;5.60;1.80;;;13.30;77.10;;;;;;5006586;28;20512;-72
2022/09/17 06:40:17;;;;;;;7.17;1.90;;;13.30;77.10;;;;;;5009326;28;20462;-73
2022/09/17 06:42:45;;;;;;;6.83;2.50;;;13.30;77.10;;;;;;4998529;28;20491;-72
2022/09/17 06:45:13;;;;;;;8.27;1.97;;;13.40;77.10;;;;;;4996370;28;20518;-72
2022/09/17 06:47:43;;;;;;;8.07;2.70;;;13.40;77.20;;;;;;5004677;28;20464;-72
2022/09/17 06:50:13;;;;;;;7.83;2.50;;;13.40;77.20;;;;;;5007786;28;21009;-72
2022/09/17 06:52:48;;;;;;;6.57;2.30;;;13.40;77.10;;;;;;4997029;28;20484;-72
2022/09/17 06:55:16;;;;;;;7.97;2.80;;;13.40;77.30;;;;;;4997166;28;20468;-72
2022/09/17 06:57:44;;;;;;;6.30;2.30;;;13.40;77.30;;;;;;5001075;28;20492;-73
2022/09/17 07:00:13;;;;;;;9.03;2.63;;;13.40;77.30;;;;;;4998143;28;20488;-72
2022/09/17 07:02:41;;;;;;;6.40;2.00;;;13.40;77.30;;;;;;4997401;28;20486;-73
2022/09/17 07:05:09;;;;;;;6.67;2.80;;;13.50;77.40;;;;;;5012564;28;20465;-73
2022/09/17 07:07:40;;;;;;;6.97;2.87;;;13.50;77.30;;;;;;4998277;28;20519;-72
2022/09/17 07:10:08;;;;;;;11.07;3.13;;;13.50;77.40;;;;;;4998279;28;20460;-72
2022/09/17 07:12:40;;;;;;;8.53;3.10;;;13.50;77.40;;;;;;4998568;28;20492;-72
2022/09/17 07:15:14;;;;;;;9.40;2.17;;;13.50;77.20;;;;;;5001361;28;20444;-73
2022/09/17 07:17:43;;;;;;;16.00;2.73;;;13.50;77.30;;;;;;4998910;28;20993;-72
2022/09/17 07:20:11;;;;;;;6.97;2.70;;;13.50;77.20;;;;;;5000182;28;20464;-72
2022/09/17 07:22:41;;;;;;;7.43;2.77;;;13.50;77.20;;;;;;5003461;28;20532;-72
2022/09/17 07:25:10;;;;;;;5.13;2.20;;;13.50;77.30;;;;;;5000231;28;20934;-72
2022/09/17 07:27:38;;;;;;;10.80;2.50;;;13.60;77.30;;;;;;5000986;28;21215;-73
2022/09/17 07:30:07;;;;;;;12.27;2.33;;;13.60;77.30;;;;;;5000221;28;20460;-72
2022/09/17 07:32:35;;;;;;;8.00;2.63;;;13.60;77.30;;;;;;5000694;28;20496;-73
2022/09/17 07:35:03;;;;;;;8.90;2.30;;;13.60;77.30;;;;;;5004254;28;20487;-73
2022/09/17 07:37:31;;;;;;;10.57;3.30;;;13.60;77.50;;;;;;4997799;28;20522;-73
2022/09/17 07:40:00;;;;;;;9.13;2.63;;;13.70;77.40;;;;;;4997641;28;21002;-72
2022/09/17 07:42:28;;;;;;;8.70;2.20;;;13.70;77.40;;;;;;4995651;28;20490;-72
2022/09/17 07:44:56;;;;;;;6.30;2.67;;;13.80;77.50;;;;;;5000438;28;20452;-73
2022/09/17 07:47:29;;;;;;;4.97;2.90;;;13.80;77.40;;;;;;4998763;28;20978;-73
2022/09/17 07:49:56;;;;;;;12.17;3.60;;;13.80;77.40;;;;;;4994772;28;20456;-72
2022/09/17 07:52:24;;;;;;;6.97;2.50;;;13.90;77.40;;;;;;4997753;28;21044;-72
2022/09/17 07:54:52;;;;;;;7.00;3.27;;;13.90;77.40;;;;;;5001810;28;20582;-72
2022/09/17 07:57:21;;;;;;;11.07;3.70;;;14.00;77.40;;;;;;5001403;28;21333;-73
2022/09/17 07:59:49;;;;;;;9.17;3.40;;;14.00;77.40;;;;;;5001410;28;20492;-73
2022/09/17 08:02:17;;;;;;;8.07;2.93;;;14.00;77.30;;;;;;5000886;28;20517;-72
2022/09/17 08:04:51;;;;;;;14.90;3.83;;;14.00;77.40;;;;;;4999499;28;20514;-73
2022/09/17 08:07:19;;;;;;;9.43;3.33;;;14.00;77.30;;;;;;5001363;28;20976;-73
2022/09/17 08:09:47;;;;;;;11.83;3.37;;;14.00;77.20;;;;;;5003329;28;20867;-73
2022/09/17 08:12:17;;;;;;;7.83;3.40;;;14.00;77.20;;;;;;5012360;28;20590;-73
2022/09/17 08:14:46;;;;;;;9.40;4.10;;;13.90;77.20;;;;;;4999981;28;20463;-73
2022/09/17 08:17:14;;;;;;;7.30;3.50;;;13.90;77.30;;;;;;5000757;28;20494;-72
2022/09/17 08:19:42;;;;;;;9.07;3.73;;;14.00;77.30;;;;;;4997412;28;20473;-72
2022/09/17 08:22:10;;;;;;;16.70;4.03;;;14.00;77.30;;;;;;4998628;28;20493;-72
2022/09/17 08:24:38;;;;;;;8.10;3.63;;;14.10;77.40;;;;;;5000993;28;20461;-72
2022/09/17 08:27:06;;;;;;;10.00;3.63;;;14.10;77.30;;;;;;4999877;28;20519;-73
2022/09/17 08:29:33;;;;;;;11.63;4.03;;;14.10;77.30;;;;;;4998838;28;20539;-72
2022/09/17 08:32:04;;;;;;;13.47;4.47;;;14.20;77.30;;;;;;5012488;28;20512;-73
2022/09/17 08:34:32;;;;;;;12.70;4.60;;;14.20;77.20;;;;;;4997913;28;20460;-73
2022/09/17 08:37:00;;;;;;;10.13;4.33;;;14.20;77.30;;;;;;5011161;28;20542;-73
2022/09/17 08:39:28;;;;;;;14.20;4.20;;;14.30;77.30;;;;;;5004345;28;20511;-73
2022/09/17 08:42:09;;;;;;;8.43;4.23;;;14.30;77.20;;;;;;5002461;28;20491;-73
2022/09/17 08:44:41;;;;;;;11.47;4.77;;;14.30;77.20;;;;;;4997555;28;20551;-72
2022/09/17 08:47:17;;;;;;;9.73;4.27;;;14.30;77.10;;;;;;4999885;28;20488;-71
2022/09/17 08:49:49;;;;;;;12.60;4.63;;;14.40;77.10;;;;;;5001512;28;20480;-72
2022/09/17 08:52:54;;;;;;;13.67;4.97;;;14.40;77.10;;;;;;5002222;28;20529;-73
2022/09/17 08:55:33;;;;;;;9.40;4.37;;;14.50;77.20;;;;;;4999523;28;20550;-73
2022/09/17 08:58:27;;;;;;;12.40;4.57;;;14.60;77.20;;;;;;4997271;28;20483;-73
2022/09/17 09:01:01;;;;;;;17.43;4.87;;;14.60;77.10;;;;;;5001589;28;20480;-73
2022/09/17 09:03:45;;;;;;;14.60;4.90;;;14.70;77.00;;;;;;5015481;28;20478;-73
2022/09/17 09:06:14;;;;;;;13.80;4.30;;;14.80;77.00;;;;;;4999670;28;20477;-73
2022/09/17 09:08:47;;;;;;;11.10;5.13;;;14.80;76.80;;;;;;5003044;28;20511;-73
2022/09/17 09:11:18;;;;;;;9.50;4.67;;;14.80;76.70;;;;;;5002482;28;20480;-73
2022/09/17 09:13:50;;;;;;;12.70;4.80;;;14.80;76.50;;;;;;5000297;28;20480;-74
2022/09/17 09:16:20;;;;;;;10.90;4.13;;;14.80;76.40;;;;;;5009534;28;20483;-73
2022/09/17 09:18:53;;;;;;;10.30;4.03;;;14.80;76.30;;;;;;5005203;28;20493;-73
2022/09/17 09:21:27;;;;;;;10.43;4.10;;;14.80;76.40;;;;;;5001554;28;20522;-73
2022/09/17 09:23:57;;;;;;;10.17;4.03;;;14.80;76.20;;;;;;5002953;28;20495;-73
2022/09/17 09:26:43;;;;;;;9.00;4.40;;;14.90;76.30;;;;;;5004504;28;20483;-72
2022/09/17 09:29:19;;;;;;;13.27;4.30;;;14.90;76.30;;;;;;5003753;28;20461;-73
2022/09/17 09:32:06;;;;;;;9.03;3.90;;;15.00;76.30;;;;;;5004629;28;20480;-73
2022/09/17 09:34:46;;;;;;;10.50;4.07;;;15.00;76.10;;;;;;4999619;28;20503;-73
2022/09/17 09:37:18;;;;;;;9.73;4.13;;;15.10;75.90;;;;;;5004704;28;20477;-74
2022/09/17 09:39:48;;;;;;;10.53;4.00;;;15.10;76.00;;;;;;5016907;28;20464;-74
2022/09/17 09:42:28;;;;;;;14.57;3.70;;;15.20;76.10;;;;;;5000828;28;20485;-74
2022/09/17 09:44:58;;;;;;;11.07;4.50;;;15.20;76.00;;;;;;4999831;28;20501;-73
2022/09/17 09:47:46;;;;;;;11.80;3.80;;;15.20;75.90;;;;;;5002563;28;21023;-73
2022/09/17 09:50:33;;;;;;;13.20;3.30;;;15.20;75.40;;;;;;5006294;28;20448;-73
2022/09/17 09:53:29;;;;;;;13.63;4.50;;;15.10;75.30;;;;;;5017913;28;20703;-73
2022/09/17 09:56:10;;;;;;;14.30;4.10;;;15.00;75.60;;;;;;5006806;28;20470;-73
2022/09/17 09:58:40;;;;;;;12.40;4.10;;;15.00;75.70;;;;;;5011109;28;20467;-73
2022/09/17 10:01:13;;;;;;;14.77;4.33;;;15.00;75.80;;;;;;5001768;28;20535;-74
2022/09/17 10:03:42;;;;;;;11.00;4.73;;;15.00;76.00;;;;;;5001158;28;20916;-73
2022/09/17 10:06:13;;;;;;;16.33;4.50;;;15.00;76.20;;;;;;4998011;28;20473;-73
2022/09/17 10:08:42;;;;;;;15.40;5.43;;;15.00;76.30;;;;;;5019831;28;20515;-73
2022/09/17 10:11:21;;;;;;;9.83;4.77;;;15.00;76.30;;;;;;5002301;28;20562;-73
2022/09/17 10:13:49;;;;;;;22.37;5.63;;;15.10;76.40;;;;;;4999954;28;20530;-73
2022/09/17 10:16:18;;;;;;;10.97;4.33;;;15.00;76.40;;;;;;5004827;28;20465;-73
2022/09/17 10:18:47;;;;;;;8.40;4.43;;;15.00;76.30;;;;;;5001954;28;20473;-74
2022/09/17 10:21:29;;;;;;;12.13;4.03;;;15.00;76.30;;;;;;5000056;28;20524;-74
2022/09/17 10:23:58;;;;;;;6.80;3.30;;;14.90;76.10;;;;;;5003410;28;20476;-74
2022/09/17 10:26:30;;;;;;;10.17;3.50;;;14.90;75.80;;;;;;5011244;28;20465;-73
2022/09/17 10:29:00;;;;;;;10.67;3.50;;;14.80;76.00;;;;;;5009458;28;20511;-73
2022/09/17 10:31:45;;;;;;;11.83;4.67;;;14.70;76.10;;;;;;5013483;28;20561;-74
2022/09/17 10:34:20;;;;;;;12.27;4.80;;;14.70;76.40;;;;;;5001739;28;20487;-74
2022/09/17 10:36:50;;;;;;;7.97;4.50;;;14.80;76.70;;;;;;5000474;28;21068;-73
2022/09/17 10:39:35;;;;;;;14.47;5.33;;;14.80;76.80;;;;;;5003097;28;20471;-73
2022/09/17 10:42:05;;;;;;;11.93;4.43;;;14.90;77.00;;;;;;4999251;28;20484;-73
2022/09/17 10:44:34;;;;;;;11.37;4.17;;;14.90;77.10;;;;;;5000136;28;20461;-74
2022/09/17 10:47:05;;;;;;;13.10;5.00;;;15.00;77.10;;;;;;5005320;28;20856;-74
2022/09/17 10:49:40;;;;;;;11.73;4.17;;;15.00;77.00;;;;;;4997031;28;20461;-74
2022/09/17 10:52:23;;;;;;;10.17;4.07;;;15.00;77.20;;;;;;5014182;28;20468;-73
2022/09/17 10:55:26;;;;;;;10.50;3.67;;;15.10;77.30;;;;;;5014362;28;20457;-74
2022/09/17 10:58:23;;;;;;;9.20;3.63;;;15.20;77.20;;;;;;5002459;28;20505;-74
2022/09/17 11:01:06;;;;;;;8.23;3.50;;;15.20;77.10;;;;;;5016492;28;21204;-74
2022/09/17 11:03:51;;;;;;;9.57;3.63;;;15.20;77.10;;;;;;4996142;28;20559;-74
2022/09/17 11:06:56;;;;;;;9.73;3.53;;;15.30;77.10;;;;;;4992526;28;20520;-73
2022/09/17 11:09:35;;;;;;;6.27;2.73;;;15.40;76.90;;;;;;5012153;28;21082;-74
2022/09/17 11:12:17;;;;;;;8.50;2.70;;;15.40;76.30;;;;;;5013663;28;20472;-74
2022/09/17 11:14:50;;;;;;;6.30;2.03;;;15.40;75.10;;;;;;5009751;28;20457;-73
2022/09/17 11:17:38;;;;;;;7.70;2.43;;;15.30;75.40;;;;;;5000770;28;20540;-73
2022/09/17 11:20:21;;;;;;;10.50;2.90;;;15.30;75.20;;;;;;4997218;28;20469;-73
2022/09/17 11:23:00;;;;;;;6.97;2.37;;;15.40;75.20;;;;;;5014002;28;20481;-73
2022/09/17 11:25:46;;;;;;;7.97;2.80;;;15.40;75.30;;;;;;5008760;28;20842;-73
2022/09/17 11:28:34;;;;;;;10.10;3.03;;;15.40;75.20;;;;;;4997809;28;20484;-73
2022/09/17 11:31:13;;;;;;;9.40;2.70;;;15.40;75.20;;;;;;5011102;28;20541;-73
2022/09/17 11:33:59;;;;;;;11.10;3.33;;;15.40;75.30;;;;;;5014540;28;20880;-73
2022/09/17 11:36:31;;;;;;;6.03;3.10;;;15.40;75.30;;;;;;4999491;28;20458;-73
2022/09/17 11:39:07;;;;;;;12.90;3.37;;;15.40;75.50;;;;;;5001188;28;20515;-73
2022/09/17 11:41:41;;;;;;;9.73;3.00;;;15.50;75.40;;;;;;4994950;28;20516;-73
2022/09/17 11:44:14;;;;;;;5.60;2.50;;;15.50;75.10;;;;;;4999340;28;21146;-73
2022/09/17 11:46:46;;;;;;;10.40;3.07;;;15.50;75.20;;;;;;5001577;28;20511;-73
2022/09/17 11:49:22;;;;;;;7.00;3.10;;;15.50;75.30;;;;;;5000983;28;20449;-74
2022/09/17 11:51:54;;;;;;;7.50;3.17;;;15.50;75.40;;;;;;5001232;28;20445;-74
2022/09/17 11:54:27;;;;;;;10.57;3.60;;;15.60;75.40;;;;;;5002106;28;20492;-74
2022/09/17 11:57:04;;;;;;;12.20;3.00;;;15.70;75.30;;;;;;5003359;28;20519;-74
2022/09/17 11:59:41;;;;;;;8.10;3.23;;;15.70;75.20;;;;;;5001448;28;20881;-74
2022/09/17 12:02:19;;;;;;;4.83;2.40;;;15.70;75.30;;;;;;5001712;28;21272;-73
2022/09/17 12:04:55;;;;;;;10.87;3.20;;;15.70;75.30;;;;;;5000831;28;20450;-74
2022/09/17 12:07:34;;;;;;;10.73;3.20;;;15.80;75.30;;;;;;4999593;28;20490;-73
2022/09/17 12:10:18;;;;;;;7.90;3.00;;;15.80;75.10;;;;;;4997863;28;20456;-74
2022/09/17 12:12:54;;;;;;;7.53;3.10;;;15.80;74.80;;;;;;5000331;28;21309;-74
2022/09/17 12:15:24;;;;;;;9.10;2.70;;;15.80;74.50;;;;;;4996868;28;21223;-74
2022/09/17 12:17:59;;;;;;;10.57;2.77;;;15.80;74.30;;;;;;4997501;28;21087;-74
2022/09/17 12:20:52;;;;;;;13.00;3.30;;;15.80;74.00;;;;;;5001009;28;20545;-74
2022/09/17 12:23:30;;;;;;;10.87;2.80;;;15.60;74.10;;;;;;4998473;28;20832;-74
2022/09/17 12:26:08;;;;;;;7.13;2.70;;;15.60;74.20;;;;;;4998257;28;20555;-74
2022/09/17 12:28:43;;;;;;;6.90;2.73;;;15.60;74.30;;;;;;5012493;28;20940;-74
2022/09/17 12:31:18;;;;;;;7.83;2.60;;;15.60;74.20;;;;;;5000165;28;20488;-74
2022/09/17 12:33:51;;;;;;;6.83;2.30;;;15.60;74.20;;;;;;4994385;28;20527;-73
2022/09/17 12:36:39;;;;;;;6.90;2.40;;;15.60;73.50;;;;;;4993241;28;20515;-74
2022/09/17 12:39:23;;;;;;;6.63;2.03;;;15.50;72.70;;;;;;5002919;28;20460;-74
2022/09/17 12:41:59;;;;;;;8.00;2.20;;;15.50;73.00;;;;;;5004339;28;20461;-74
2022/09/17 12:44:48;;;;;;;5.73;2.40;;;15.40;72.90;;;;;;5004753;28;20476;-74
2022/09/17 12:47:40;;;;;;;6.20;1.73;;;15.40;73.10;;;;;;5002417;28;20461;-72
2022/09/17 12:50:19;;;;;;;11.03;2.03;;;15.50;72.50;;;;;;5001984;28;20456;-73
2022/09/17 12:53:01;;;;;;;7.40;2.33;;;15.40;72.40;;;;;;5002492;28;20509;-75
2022/09/17 12:55:41;;;;;;;5.80;2.10;;;15.50;72.50;;;;;;5008256;28;20497;-73
2022/09/17 12:58:22;;;;;;;11.40;2.00;;;15.50;72.50;;;;;;5006273;28;20484;-73
2022/09/17 13:00:57;;;;;;;5.07;1.60;;;15.60;72.20;;;;;;5005371;28;20970;-73
2022/09/17 13:03:29;;;;;;;5.03;1.77;;;15.60;72.10;;;;;;4999711;28;20523;-72
2022/09/17 13:06:34;;;;;;;5.07;1.70;;;15.60;72.10;;;;;;5009629;28;20455;-75
2022/09/17 13:09:36;;;;;;;5.63;1.87;;;15.70;71.80;;;;;;5008433;28;20452;-74
2022/09/17 13:12:10;;;;;;;6.63;1.93;;;15.70;71.70;;;;;;5013250;28;20513;-74
2022/09/17 13:14:58;;;;;;;7.27;2.03;;;15.70;71.10;;;;;;5005208;28;20844;-74